FLL weather

Fort Lauderdale Hollywood International Airport
Fort Lauderdale, Florida, United States

Public forecast

Using degrees Fahrenheit for public forecast. Weather courtesy of forecast.io.

Current aviation weather report (METAR) for Fort Lauderdale Hollywood International Airport

Retrieved 2020/01/29 03:53 UTC (51 minutes ago):

KFLL 290353Z 33005KT 10SM SCT050 18/16 A2994 RMK AO2 SLP138 T01830156

Aviation forecast (TAF) for Fort Lauderdale Hollywood International Airport

Retrieved 2020-01-29 00:51 UTC (4 hours ago):

TAF KFLL 282343Z 2900/3006 05008KT P6SM SCT025 SCT045 FM290500 VRB03KT P6SM FEW025 SCT045 FM291400 13012KT P6SM FEW050 SCT080 FM300200 17005KT P6SM FEW050 SCT080